createdAt,value
2022-10-05T00:01:00.104Z,11.33
2022-10-05T00:03:33.528Z,11.47
2022-10-05T00:06:01.092Z,11.17
2022-10-05T00:08:33.722Z,11.20
2022-10-05T00:11:01.603Z,10.80
2022-10-05T00:13:30.730Z,11.00
2022-10-05T00:16:16.303Z,10.37
2022-10-05T00:18:51.462Z,12.00
2022-10-05T00:21:25.245Z,10.83
2022-10-05T00:23:56.452Z,11.23
2022-10-05T00:26:32.244Z,17.53
2022-10-05T00:29:02.159Z,21.47
2022-10-05T00:31:33.258Z,14.93
2022-10-05T00:34:00.923Z,13.00
2022-10-05T00:36:28.455Z,12.00
2022-10-05T00:38:56.051Z,14.57
2022-10-05T00:41:50.428Z,12.63
2022-10-05T00:44:48.665Z,13.13
2022-10-05T00:47:52.692Z,13.20
2022-10-05T00:50:41.664Z,12.67
2022-10-05T00:53:15.076Z,12.07
2022-10-05T00:56:12.047Z,12.00
2022-10-05T00:58:48.621Z,11.30
2022-10-05T01:01:38.735Z,11.60
2022-10-05T01:04:33.629Z,11.73
2022-10-05T01:07:39.092Z,12.37
2022-10-05T01:10:06.707Z,11.63
2022-10-05T01:12:55.492Z,10.37
2022-10-05T01:15:51.067Z,10.27
2022-10-05T01:18:24.332Z,10.57
2022-10-05T01:21:10.911Z,10.77
2022-10-05T01:24:03.316Z,10.47
2022-10-05T01:26:59.217Z,10.27
2022-10-05T01:29:45.644Z,10.70
2022-10-05T01:32:25.976Z,11.30
2022-10-05T01:35:02.753Z,10.70
2022-10-05T01:38:17.129Z,11.20
2022-10-05T01:40:51.632Z,11.90
2022-10-05T01:43:25.398Z,12.63
2022-10-05T01:46:13.399Z,12.60
2022-10-05T01:49:08.508Z,12.07
2022-10-05T01:51:45.540Z,12.30
2022-10-05T01:54:31.966Z,12.07
2022-10-05T01:57:05.349Z,10.80
2022-10-05T02:00:07.493Z,11.60
2022-10-05T02:02:46.230Z,13.57
2022-10-05T02:05:16.544Z,13.10
2022-10-05T02:07:51.734Z,12.67
2022-10-05T02:10:19.313Z,16.47
2022-10-05T02:12:51.182Z,14.77
2022-10-05T02:15:32.363Z,11.53
2022-10-05T02:18:10.605Z,12.07
2022-10-05T02:20:42.329Z,11.33
2022-10-05T02:23:18.396Z,11.23
2022-10-05T02:25:49.372Z,11.57
2022-10-05T02:28:45.764Z,10.80
2022-10-05T02:31:24.082Z,11.07
2022-10-05T02:33:51.795Z,10.27
2022-10-05T02:36:34.484Z,10.70
2022-10-05T02:39:17.329Z,9.97
2022-10-05T02:41:54.714Z,9.60
2022-10-05T02:44:49.839Z,9.07
2022-10-05T02:47:46.628Z,9.63
2022-10-05T02:50:30.912Z,9.93
2022-10-05T02:53:27.059Z,9.23
2022-10-05T02:56:21.047Z,8.93
2022-10-05T02:59:06.788Z,10.47
2022-10-05T03:01:46.435Z,9.57
2022-10-05T03:04:58.776Z,10.37
2022-10-05T03:07:39.361Z,10.00
2022-10-05T03:10:13.562Z,10.63
2022-10-05T03:13:14.765Z,11.33
2022-10-05T03:15:53.799Z,11.37
2022-10-05T03:18:46.019Z,11.70
2022-10-05T03:21:33.267Z,12.07
2022-10-05T03:24:07.249Z,13.73
2022-10-05T03:26:55.855Z,14.40
2022-10-05T03:29:47.253Z,14.23
2022-10-05T03:32:17.835Z,14.33
2022-10-05T03:35:10.595Z,14.83
2022-10-05T03:37:57.052Z,11.83
2022-10-05T03:40:44.754Z,12.53
2022-10-05T03:43:21.476Z,13.40
2022-10-05T03:46:05.150Z,10.63
2022-10-05T03:49:06.784Z,11.27
2022-10-05T03:51:43.277Z,13.17
2022-10-05T03:54:23.990Z,12.30
2022-10-05T03:57:00.555Z,13.57
2022-10-05T03:59:39.050Z,12.33
2022-10-05T04:02:15.599Z,11.37
2022-10-05T04:05:12.521Z,12.43
2022-10-05T04:07:49.598Z,11.57
2022-10-05T04:10:25.749Z,11.17
2022-10-05T04:13:11.262Z,10.70
2022-10-05T04:16:14.589Z,11.40
2022-10-05T04:18:42.209Z,11.20
2022-10-05T04:21:28.153Z,12.00
2022-10-05T04:24:14.446Z,11.63
2022-10-05T04:26:45.606Z,11.97
2022-10-05T04:29:28.282Z,10.50
2022-10-05T04:32:35.430Z,10.37
2022-10-05T04:35:27.637Z,10.60
2022-10-05T04:38:19.315Z,10.43
2022-10-05T04:41:01.990Z,11.03
2022-10-05T04:43:54.536Z,10.10
2022-10-05T04:46:54.713Z,10.17
2022-10-05T04:50:05.878Z,10.50
2022-10-05T04:53:05.817Z,10.30
2022-10-05T04:55:53.631Z,10.67
2022-10-05T04:58:29.670Z,10.40
2022-10-05T05:01:15.632Z,10.93
2022-10-05T05:03:48.847Z,11.13
2022-10-05T05:06:17.938Z,10.63
2022-10-05T05:09:13.615Z,11.20
2022-10-05T05:12:03.654Z,11.07
2022-10-05T05:14:59.938Z,10.83
2022-10-05T05:17:33.224Z,10.93
2022-10-05T05:20:18.289Z,11.37
2022-10-05T05:23:23.649Z,10.90
2022-10-05T05:26:01.560Z,11.17
2022-10-05T05:28:32.198Z,11.00
2022-10-05T05:31:33.366Z,10.93
2022-10-05T05:34:27.473Z,11.13
2022-10-05T05:37:15.266Z,11.33
2022-10-05T05:40:14.027Z,10.97
2022-10-05T05:42:47.633Z,12.40
2022-10-05T05:45:29.683Z,11.80
2022-10-05T05:48:02.762Z,12.17
2022-10-05T05:50:56.536Z,11.97
2022-10-05T05:53:45.353Z,15.53
2022-10-05T05:56:15.924Z,12.97
2022-10-05T05:58:46.907Z,13.43
2022-10-05T06:01:35.471Z,11.93
2022-10-05T06:04:15.213Z,11.83
2022-10-05T06:06:51.434Z,10.83
2022-10-05T06:09:34.042Z,11.53
2022-10-05T06:12:21.882Z,11.67
2022-10-05T06:14:57.499Z,11.87
2022-10-05T06:17:39.017Z,12.00
2022-10-05T06:20:22.803Z,9.93
2022-10-05T06:22:52.221Z,11.40
2022-10-05T06:25:38.437Z,10.97
2022-10-05T06:28:19.529Z,12.97
2022-10-05T06:31:05.576Z,13.40
2022-10-05T06:33:45.669Z,13.83
2022-10-05T06:36:34.417Z,15.27
2022-10-05T06:39:16.884Z,15.63
2022-10-05T06:42:13.629Z,15.90
2022-10-05T06:45:16.965Z,16.53
2022-10-05T06:47:52.377Z,16.30
2022-10-05T06:50:43.001Z,15.87
2022-10-05T06:53:35.068Z,17.67
2022-10-05T06:56:32.818Z,15.33
2022-10-05T06:59:16.343Z,15.60
2022-10-05T07:01:57.549Z,15.40
2022-10-05T07:04:38.978Z,15.20
2022-10-05T07:07:17.401Z,14.10
2022-10-05T07:10:23.859Z,14.43
2022-10-05T07:12:54.371Z,16.90
2022-10-05T07:15:43.495Z,15.20
2022-10-05T07:18:20.242Z,16.33
2022-10-05T07:21:03.967Z,15.97
2022-10-05T07:23:59.561Z,16.10
2022-10-05T07:26:34.990Z,15.70
2022-10-05T07:29:27.656Z,16.03
2022-10-05T07:32:07.680Z,14.97
2022-10-05T07:35:02.986Z,15.87
2022-10-05T07:37:54.689Z,15.70
2022-10-05T07:40:44.069Z,16.23
2022-10-05T07:43:17.534Z,15.17
2022-10-05T07:45:57.291Z,15.00
2022-10-05T07:48:49.485Z,14.47
2022-10-05T07:51:41.245Z,14.67
2022-10-05T07:54:23.808Z,15.43
2022-10-05T07:57:21.583Z,15.87
2022-10-05T08:00:06.541Z,15.70
2022-10-05T08:03:11.438Z,15.33
2022-10-05T08:05:42.395Z,15.77
2022-10-05T08:08:31.184Z,16.93
2022-10-05T08:11:21.922Z,16.30
2022-10-05T08:13:59.641Z,14.90
2022-10-05T08:16:32.167Z,16.63
2022-10-05T08:19:20.522Z,15.13
2022-10-05T08:21:54.716Z,15.93
2022-10-05T08:24:58.394Z,16.20
2022-10-05T08:27:38.488Z,15.10
2022-10-05T08:30:11.096Z,16.03
2022-10-05T08:33:14.705Z,14.10
2022-10-05T08:35:51.692Z,14.10
2022-10-05T08:38:28.760Z,14.70
2022-10-05T08:41:17.659Z,14.30
2022-10-05T08:43:45.602Z,14.60
2022-10-05T08:46:30.148Z,15.63
2022-10-05T08:49:09.906Z,14.93
2022-10-05T08:51:53.780Z,14.70
2022-10-05T08:54:33.064Z,14.73
2022-10-05T08:57:03.401Z,13.80
2022-10-05T08:59:45.728Z,14.73
2022-10-05T09:02:59.404Z,14.50
2022-10-05T09:06:04.183Z,13.13
2022-10-05T09:08:34.875Z,14.27
2022-10-05T09:11:06.956Z,13.23
2022-10-05T09:13:56.997Z,13.47
2022-10-05T09:16:39.027Z,12.43
2022-10-05T09:19:43.956Z,12.70
2022-10-05T09:22:33.688Z,13.27
2022-10-05T09:25:23.511Z,12.43
2022-10-05T09:28:03.869Z,12.40
2022-10-05T09:30:52.750Z,12.07
2022-10-05T09:33:26.922Z,12.20
2022-10-05T09:36:19.184Z,11.77
2022-10-05T09:38:59.109Z,11.90
2022-10-05T09:42:03.685Z,12.23
2022-10-05T09:44:45.576Z,12.97
2022-10-05T09:47:34.214Z,12.77
2022-10-05T09:50:32.916Z,11.40
2022-10-05T09:53:25.165Z,12.17
2022-10-05T09:56:21.228Z,11.77
2022-10-05T09:59:13.800Z,11.67
2022-10-05T10:02:00.506Z,11.83
2022-10-05T10:05:08.861Z,10.87
2022-10-05T10:07:57.861Z,11.07
2022-10-05T10:11:00.700Z,10.93
2022-10-05T10:14:22.372Z,11.03
2022-10-05T10:17:46.509Z,10.73
2022-10-05T10:20:25.832Z,9.80
2022-10-05T10:23:11.656Z,9.82
2022-10-05T10:25:57.471Z,9.30
2022-10-05T10:28:40.198Z,8.85
2022-10-05T10:31:32.990Z,9.48
2022-10-05T10:34:14.434Z,8.18
2022-10-05T10:37:02.930Z,8.05
2022-10-05T10:40:05.765Z,6.13
2022-10-05T10:42:48.871Z,5.43
2022-10-05T10:45:54.280Z,5.00
2022-10-05T10:48:30.854Z,4.60
2022-10-05T10:51:09.848Z,4.00
2022-10-05T10:54:25.303Z,4.43
2022-10-05T10:57:13.595Z,3.97
2022-10-05T11:00:01.609Z,4.05
2022-10-05T11:02:44.308Z,4.38
2022-10-05T11:05:39.714Z,4.15
2022-10-05T11:08:35.445Z,3.60
2022-10-05T11:11:48.109Z,3.70
2022-10-05T11:14:21.754Z,3.45
2022-10-05T11:16:55.331Z,4.05
2022-10-05T11:20:04.773Z,3.85
2022-10-05T11:23:04.076Z,4.15
2022-10-05T11:25:57.402Z,3.53
2022-10-05T11:29:32.273Z,3.85
2022-10-05T11:32:59.336Z,3.75
2022-10-05T11:36:13.877Z,2.78
2022-10-05T11:39:07.463Z,2.60
2022-10-05T11:42:01.482Z,2.83
2022-10-05T11:44:51.837Z,2.88
2022-10-05T11:47:22.146Z,3.05
2022-10-05T11:49:53.616Z,2.65
2022-10-05T11:52:46.127Z,2.80
2022-10-05T11:55:36.064Z,2.85
2022-10-05T11:58:34.086Z,2.92
2022-10-05T12:01:17.673Z,2.40
2022-10-05T12:04:03.556Z,3.08
2022-10-05T12:07:04.619Z,2.65
2022-10-05T12:10:14.025Z,2.60
2022-10-05T12:13:05.069Z,2.53
2022-10-05T12:15:44.674Z,3.17
2022-10-05T12:18:20.842Z,3.10
2022-10-05T12:21:22.894Z,2.75
2022-10-05T12:24:01.845Z,3.50
2022-10-05T12:26:37.667Z,3.08
2022-10-05T12:29:25.730Z,3.17
2022-10-05T12:32:11.800Z,2.85
2022-10-05T12:35:14.620Z,2.88
2022-10-05T12:38:20.650Z,3.13
2022-10-05T12:41:16.069Z,4.00
2022-10-05T12:44:16.179Z,3.70
2022-10-05T12:46:46.537Z,4.20
2022-10-05T12:49:52.789Z,3.97
2022-10-05T12:52:26.174Z,3.83
2022-10-05T12:55:02.919Z,4.22
2022-10-05T12:58:05.444Z,4.35
2022-10-05T13:00:45.978Z,3.90
2022-10-05T13:03:28.036Z,3.88
2022-10-05T13:06:15.414Z,4.88
2022-10-05T13:08:56.505Z,4.05
2022-10-05T13:11:32.987Z,4.28
2022-10-05T13:14:29.354Z,3.70
2022-10-05T13:17:16.350Z,3.97
2022-10-05T13:19:51.687Z,4.93
2022-10-05T13:22:45.656Z,4.28
2022-10-05T13:25:37.138Z,3.72
2022-10-05T13:28:25.999Z,4.00
2022-10-05T13:31:05.629Z,4.07
2022-10-05T13:34:03.406Z,3.72
2022-10-05T13:36:44.848Z,3.80
2022-10-05T13:39:40.620Z,3.65
2022-10-05T13:42:26.842Z,3.55
2022-10-05T13:45:00.364Z,3.85
2022-10-05T13:47:37.794Z,4.10
2022-10-05T13:50:22.209Z,4.10
2022-10-05T13:53:08.183Z,4.43
2022-10-05T13:56:20.934Z,3.80
2022-10-05T13:59:00.256Z,4.10
2022-10-05T14:01:42.991Z,4.30
2022-10-05T14:04:27.463Z,4.43
2022-10-05T14:06:55.547Z,4.00
2022-10-05T14:09:34.132Z,4.43
2022-10-05T14:12:04.916Z,3.92
2022-10-05T14:14:48.869Z,4.25
2022-10-05T14:17:33.096Z,4.25
2022-10-05T14:20:19.600Z,4.05
2022-10-05T14:22:54.599Z,3.90
2022-10-05T14:25:24.921Z,3.97
2022-10-05T14:28:03.003Z,4.07
2022-10-05T14:30:34.129Z,3.70
2022-10-05T14:33:22.267Z,3.97
2022-10-05T14:35:59.827Z,3.72
2022-10-05T14:38:35.342Z,5.53
2022-10-05T14:41:08.768Z,3.83
2022-10-05T14:43:39.108Z,3.33
2022-10-05T14:46:23.187Z,3.00
2022-10-05T14:49:21.031Z,3.35
2022-10-05T14:51:50.972Z,2.70
2022-10-05T14:54:46.820Z,3.33
2022-10-05T14:57:44.459Z,3.03
2022-10-05T15:00:17.238Z,3.85
2022-10-05T15:03:22.584Z,2.67
2022-10-05T15:05:54.468Z,2.67
2022-10-05T15:08:22.038Z,2.42
2022-10-05T15:10:55.985Z,2.60
2022-10-05T15:13:50.347Z,3.00
2022-10-05T15:16:32.591Z,2.75
2022-10-05T15:19:12.275Z,3.15
2022-10-05T15:22:17.921Z,2.55
2022-10-05T15:24:51.653Z,2.90
2022-10-05T15:27:26.537Z,2.80
2022-10-05T15:30:09.233Z,3.00
2022-10-05T15:32:57.827Z,3.28
2022-10-05T15:35:43.636Z,2.15
2022-10-05T15:38:36.621Z,2.47
2022-10-05T15:41:39.634Z,2.22
2022-10-05T15:44:49.064Z,2.90
2022-10-05T15:47:51.868Z,2.80
2022-10-05T15:51:03.286Z,3.15
2022-10-05T15:54:14.729Z,3.10
2022-10-05T15:56:57.366Z,5.60
2022-10-05T15:59:49.711Z,3.25
2022-10-05T16:02:23.787Z,2.90
2022-10-05T16:05:10.451Z,3.13
2022-10-05T16:08:11.880Z,3.33
2022-10-05T16:10:45.359Z,3.50
2022-10-05T16:13:35.027Z,3.40
2022-10-05T16:16:42.307Z,3.88
2022-10-05T16:19:37.069Z,4.00
2022-10-05T16:22:43.458Z,4.00
2022-10-05T16:25:25.035Z,3.45
2022-10-05T16:27:57.976Z,3.47
2022-10-05T16:30:35.847Z,3.40
2022-10-05T16:33:29.093Z,4.40
2022-10-05T16:36:40.263Z,3.90
2022-10-05T16:39:17.541Z,3.80
2022-10-05T16:42:02.404Z,4.30
2022-10-05T16:44:41.924Z,3.30
2022-10-05T16:47:32.351Z,3.22
2022-10-05T16:50:25.139Z,3.00
2022-10-05T16:53:15.580Z,2.50
2022-10-05T16:55:49.808Z,2.40
2022-10-05T16:58:31.289Z,1.77
2022-10-05T17:01:22.717Z,2.28
2022-10-05T17:03:50.403Z,1.80
2022-10-05T17:06:36.938Z,2.70
2022-10-05T17:09:38.369Z,2.00
2022-10-05T17:12:42.307Z,1.98
2022-10-05T17:15:33.503Z,1.95
2022-10-05T17:18:28.405Z,1.73
2022-10-05T17:21:02.590Z,2.22
2022-10-05T17:23:42.887Z,1.90
2022-10-05T17:26:52.996Z,1.80
2022-10-05T17:29:24.846Z,1.80
2022-10-05T17:32:02.512Z,2.03
2022-10-05T17:34:34.252Z,2.23
2022-10-05T17:37:39.205Z,2.10
2022-10-05T17:40:59.997Z,1.80
2022-10-05T17:43:31.734Z,1.67
2022-10-05T17:46:07.689Z,1.60
2022-10-05T17:48:38.870Z,2.60
2022-10-05T17:51:48.328Z,2.00
2022-10-05T17:54:37.182Z,2.00
2022-10-05T17:57:04.698Z,1.97
2022-10-05T17:59:48.997Z,1.83
2022-10-05T18:02:39.545Z,2.40
2022-10-05T18:05:12.682Z,2.03
2022-10-05T18:07:49.613Z,2.07
2022-10-05T18:10:29.724Z,2.30
2022-10-05T18:13:02.902Z,2.00
2022-10-05T18:15:31.107Z,3.07
2022-10-05T18:18:32.025Z,2.27
2022-10-05T18:21:14.996Z,2.77
2022-10-05T18:24:09.167Z,3.30
2022-10-05T18:27:02.137Z,2.77
2022-10-05T18:29:54.342Z,3.10
2022-10-05T18:32:43.471Z,2.80
2022-10-05T18:35:52.407Z,3.00
2022-10-05T18:38:25.914Z,3.00
2022-10-05T18:41:15.901Z,3.00
2022-10-05T18:44:00.509Z,3.83
2022-10-05T18:46:49.836Z,4.07
2022-10-05T18:49:38.137Z,4.17
2022-10-05T18:52:36.440Z,4.07
2022-10-05T18:55:57.370Z,4.40
2022-10-05T18:58:43.645Z,4.67
2022-10-05T19:01:48.795Z,4.03
2022-10-05T19:04:37.082Z,4.20
2022-10-05T19:07:45.602Z,4.80
2022-10-05T19:10:50.556Z,5.20
2022-10-05T19:13:50.918Z,5.37
2022-10-05T19:16:36.348Z,4.63
2022-10-05T19:19:09.809Z,5.10
2022-10-05T19:21:45.352Z,4.83
2022-10-05T19:24:31.280Z,5.40
2022-10-05T19:27:16.343Z,4.90
2022-10-05T19:30:15.460Z,5.00
2022-10-05T19:33:07.487Z,5.13
2022-10-05T19:36:00.736Z,4.33
2022-10-05T19:39:01.890Z,4.67
2022-10-05T19:41:54.303Z,4.30
2022-10-05T19:44:38.403Z,4.27
2022-10-05T19:47:17.945Z,4.63
2022-10-05T19:49:55.297Z,5.00
2022-10-05T19:52:40.743Z,4.47
2022-10-05T19:55:20.418Z,4.10
2022-10-05T19:58:01.719Z,4.23
2022-10-05T20:00:32.652Z,4.90
2022-10-05T20:03:19.340Z,4.70
2022-10-05T20:05:48.199Z,4.23
2022-10-05T20:08:20.261Z,4.53
2022-10-05T20:11:27.850Z,4.50
2022-10-05T20:13:55.391Z,4.33
2022-10-05T20:19:54.615Z,4.67
2022-10-05T20:22:28.857Z,4.53
2022-10-05T20:25:00.082Z,5.33
2022-10-05T20:27:37.979Z,4.43
2022-10-05T20:30:07.499Z,4.53
2022-10-05T20:32:35.067Z,5.73
2022-10-05T20:35:02.845Z,4.80
2022-10-05T20:37:30.529Z,4.73
2022-10-05T20:39:58.396Z,4.10
2022-10-05T20:42:26.649Z,4.03
2022-10-05T20:44:56.895Z,4.03
2022-10-05T20:47:25.765Z,4.50
2022-10-05T20:49:54.533Z,4.47
2022-10-05T20:52:23.209Z,4.23
2022-10-05T20:54:53.803Z,4.47
2022-10-05T20:57:25.131Z,4.30
2022-10-05T20:59:52.937Z,4.50
2022-10-05T21:02:20.578Z,4.47
2022-10-05T21:04:50.801Z,4.50
2022-10-05T21:07:20.912Z,4.27
2022-10-05T21:09:48.576Z,3.80
2022-10-05T21:12:19.089Z,4.33
2022-10-05T21:14:47.395Z,3.87
2022-10-05T21:17:15.010Z,4.30
2022-10-05T21:19:42.577Z,4.17
2022-10-05T21:22:10.521Z,4.30
2022-10-05T21:24:40.691Z,4.30
2022-10-05T21:27:11.382Z,4.10
2022-10-05T21:29:40.995Z,3.87
2022-10-05T21:32:11.353Z,3.70
2022-10-05T21:34:40.822Z,3.90
2022-10-05T21:37:08.997Z,4.33
2022-10-05T21:39:36.797Z,4.20
2022-10-05T21:42:04.692Z,3.73
2022-10-05T21:44:32.385Z,3.83
2022-10-05T21:47:01.280Z,5.07
2022-10-05T21:49:29.132Z,4.93
2022-10-05T21:51:56.931Z,4.90
2022-10-05T21:54:24.843Z,5.57
2022-10-05T21:56:55.806Z,4.33
2022-10-05T21:59:29.091Z,4.33
2022-10-05T22:01:56.741Z,4.43
2022-10-05T22:04:24.787Z,4.50
2022-10-05T22:06:52.711Z,4.33
2022-10-05T22:09:20.285Z,4.17
2022-10-05T22:11:49.109Z,4.50
2022-10-05T22:14:17.028Z,3.87
2022-10-05T22:16:45.017Z,4.43
2022-10-05T22:19:19.976Z,4.63
2022-10-05T22:21:47.537Z,4.30
2022-10-05T22:24:15.149Z,4.50
2022-10-05T22:26:45.880Z,4.13
2022-10-05T22:29:15.952Z,4.80
2022-10-05T22:31:45.155Z,4.37
2022-10-05T22:34:13.665Z,4.70
2022-10-05T22:36:41.826Z,4.13
2022-10-05T22:39:10.915Z,4.83
2022-10-05T22:41:38.481Z,4.80
2022-10-05T22:44:06.713Z,4.73
2022-10-05T22:46:34.598Z,3.97
2022-10-05T22:49:02.314Z,4.77
2022-10-05T22:51:29.853Z,3.97
2022-10-05T22:53:57.563Z,3.93
2022-10-05T22:56:26.054Z,4.00
2022-10-05T22:58:55.020Z,3.80
2022-10-05T23:01:27.007Z,3.60
2022-10-05T23:03:57.120Z,4.00
2022-10-05T23:06:26.524Z,5.83
2022-10-05T23:08:54.741Z,4.20
2022-10-05T23:11:26.918Z,3.50
2022-10-05T23:13:56.883Z,3.80
2022-10-05T23:16:26.766Z,3.47
2022-10-05T23:18:54.950Z,3.40
2022-10-05T23:21:24.104Z,3.53
2022-10-05T23:23:51.653Z,3.30
2022-10-05T23:26:22.130Z,3.70
2022-10-05T23:28:50.174Z,3.10
2022-10-05T23:31:30.078Z,3.13
2022-10-05T23:33:57.654Z,3.10
2022-10-05T23:36:28.068Z,3.43
2022-10-05T23:38:55.596Z,3.23
2022-10-05T23:41:26.176Z,3.00
2022-10-05T23:43:55.133Z,3.40
2022-10-05T23:46:23.033Z,3.20
2022-10-05T23:48:50.687Z,2.87
2022-10-05T23:51:18.644Z,2.90
2022-10-05T23:53:46.225Z,3.40
2022-10-05T23:56:13.918Z,3.00
2022-10-05T23:58:41.664Z,2.70
